aviador You're here:

KHKS Decoded Metar

JACKSON/HAWKINS in MS, USA
Report Time2017-08-16 18:53:00
UTC Time2017-08-16 19:34:24
Flight Rules mvfr MVFR
WindCalm
Visibility4828 m
Phenomena:Light Rain
Mist
Clouds:Scattered 030 Hf
Broken 050 Hf
Broken 070 Hf
Ceiling5,000 ft
Temp26°C (ISA +12)
Dew Point26°C (100% RH)
QNH1018 hPa
Density Alt1,978 ft
Elevation354 ft
Report Wrong Elevation
Raw Report
KHKS 161853Z 00000KT 3SM -RA BR SCT030 BKN050 BKN070 26/26 A3005
RMK AO2 LTG DSNT SW AND W RAE05B21 SLP166 T02560256 PNO $=

Extra information for KHKS:More info

Metar Taf Metar & Taf Last 4 Metars F.Rules Stats Wind Profile Meteogram Temp Stats Airport Information Weather charts Add Link Nearby VenuesMetar ALERT Operation Metar Decoded Social comments

AIRNAV info for KHKS